Time;durP1;ratioP1;P1;durP2;ratioP2;P2;SDS_P1;SDS_P2;PMS_P1;PMS_P2;Temp;Humidity;BMP_temperature;BMP_pressure;BME280_temperature;BME280_humidity;BME280_pressure;Samples;Min_cycle;Max_cycle;Signal;HPM_P1;HPM_P2
2023/01/26 00:00:58;;;;;;;;;;;;;;;20.71;45.11;101927.63;5055798;28;2952;-63
2023/01/26 00:03:25;;;;;;;;;;;;;;;20.71;45.05;101928.38;5057896;28;2584;-63
2023/01/26 00:05:51;;;;;;;;;;;;;;;20.71;45.03;101921.88;5058988;28;1555;-63
2023/01/26 00:08:17;;;;;;;;;;;;;;;20.72;44.85;101920.47;5059584;28;1684;-63
2023/01/26 00:10:49;;;;;;;;;;;;;;;20.72;44.99;101920.47;5056531;28;2841;-63
2023/01/26 00:13:17;;;;;;;;;;;;;;;20.73;44.90;101922.00;5058021;28;2861;-63
2023/01/26 00:15:43;;;;;;;;;;;;;;;20.74;44.93;101914.09;5058369;28;3243;-63
2023/01/26 00:18:09;;;;;;;;;;;;;;;20.73;44.95;101909.72;5055130;28;3036;-63
2023/01/26 00:20:36;;;;;;;;;;;;;;;20.73;45.09;101903.94;5054600;28;3362;-63
2023/01/26 00:23:02;;;;;;;;;;;;;;;20.73;45.03;101901.84;5054482;28;2813;-62
2023/01/26 00:25:28;;;;;;;;;;;;;;;20.71;44.95;101893.81;5051894;28;2786;-63
2023/01/26 00:27:55;;;;;;;;;;;;;;;20.72;45.08;101888.81;5052347;28;3061;-63
2023/01/26 00:30:21;;;;;;;;;;;;;;;20.71;45.03;101887.31;5055048;28;3147;-63
2023/01/26 00:32:48;;;;;;;;;;;;;;;20.71;45.11;101887.31;5056874;28;2947;-63
2023/01/26 00:35:14;;;;;;;;;;;;;;;20.68;44.83;101883.56;5054861;28;2946;-63
2023/01/26 00:37:41;;;;;;;;;;;;;;;20.68;44.94;101882.81;5053873;28;3156;-62
2023/01/26 00:40:08;;;;;;;;;;;;;;;20.66;44.86;101882.69;5051017;28;3034;-63
2023/01/26 00:42:35;;;;;;;;;;;;;;;20.68;45.05;101882.81;5050303;28;3175;-62
2023/01/26 00:45:01;;;;;;;;;;;;;;;20.68;44.77;101882.81;5055955;28;3331;-63
2023/01/26 00:47:27;;;;;;;;;;;;;;;20.67;44.96;101876.31;5053982;28;3091;-63
2023/01/26 00:49:55;;;;;;;;;;;;;;;20.67;44.84;101876.31;5049878;28;3032;-63
2023/01/26 00:52:21;;;;;;;;;;;;;;;20.70;45.01;101882.94;5051399;28;3171;-62
2023/01/26 00:54:49;;;;;;;;;;;;;;;20.70;44.85;101877.19;5055685;28;2979;-63
2023/01/26 00:57:15;;;;;;;;;;;;;;;20.69;44.93;101867.06;5050670;28;3037;-63
2023/01/26 00:59:41;;;;;;;;;;;;;;;20.70;44.77;101874.28;5061750;28;3412;-63
2023/01/26 01:02:08;;;;;;;;;;;;;;;20.70;44.83;101865.66;5059181;28;2880;-63
2023/01/26 01:04:34;;;;;;;;;;;;;;;20.68;45.01;101860.56;5045396;28;3378;-63
2023/01/26 01:07:00;;;;;;;;;;;;;;;20.67;44.85;101858.28;5058487;28;3107;-61
2023/01/26 01:09:27;;;;;;;;;;;;;;;20.67;44.91;101864.03;5052122;28;3074;-63
2023/01/26 01:11:53;;;;;;;;;;;;;;;20.67;45.03;101855.41;5052666;28;1922;-63
2023/01/26 01:14:19;;;;;;;;;;;;;;;20.67;44.99;101858.28;5052557;28;2623;-63
2023/01/26 01:16:46;;;;;;;;;;;;;;;20.65;44.83;101849.53;5054149;28;1843;-63
2023/01/26 01:19:13;;;;;;;;;;;;;;;20.65;44.97;101855.28;5056400;28;1724;-63
2023/01/26 01:21:40;;;;;;;;;;;;;;;20.64;44.86;101854.53;5063213;28;2792;-63
2023/01/26 01:24:08;;;;;;;;;;;;;;;20.65;45.01;101849.53;5058532;28;1990;-63
2023/01/26 01:26:35;;;;;;;;;;;;;;;20.65;45.00;101843.78;5056883;28;1559;-63
2023/01/26 01:29:02;;;;;;;;;;;;;;;20.66;44.99;101842.38;5050524;28;2678;-63
2023/01/26 01:31:28;;;;;;;;;;;;;;;20.66;44.96;101851.03;5058920;28;2557;-63
2023/01/26 01:33:55;;;;;;;;;;;;;;;20.66;44.90;101839.50;5057230;28;2607;-63
2023/01/26 01:36:21;;;;;;;;;;;;;;;20.66;44.83;101842.38;5060332;28;2670;-63
2023/01/26 01:38:49;;;;;;;;;;;;;;;20.66;45.08;101839.50;5054408;28;1893;-63
2023/01/26 01:41:17;;;;;;;;;;;;;;;20.65;45.07;101830.13;5056569;28;2873;-63
2023/01/26 01:43:43;;;;;;;;;;;;;;;20.65;44.88;101838.03;5057152;28;1613;-63
2023/01/26 01:46:14;;;;;;;;;;;;;;;20.64;45.19;101836.53;5055438;28;2995;-63
2023/01/26 01:48:55;;;;;;;;;;;;;;;20.64;45.11;101833.66;5057531;28;1779;-63
2023/01/26 01:51:30;;;;;;;;;;;;;;;20.63;44.99;101835.00;5051636;28;3179;-63
2023/01/26 01:53:56;;;;;;;;;;;;;;;20.63;44.97;101837.91;5033858;28;3023;-63
2023/01/26 01:56:22;;;;;;;;;;;;;;;20.62;44.92;101828.50;5058199;28;3087;-63
2023/01/26 01:58:50;;;;;;;;;;;;;;;20.57;45.20;101823.13;5056292;28;1612;-63
2023/01/26 02:01:16;;;;;;;;;;;;;;;20.58;45.23;101821.75;5050157;28;2996;-63
2023/01/26 02:03:43;;;;;;;;;;;;;;;20.56;45.21;101815.84;5061686;28;1608;-63
2023/01/26 02:06:17;;;;;;;;;;;;;;;20.57;45.25;101815.25;5054509;28;1796;-63
2023/01/26 02:08:45;;;;;;;;;;;;;;;20.61;45.06;101817.63;5054217;28;1799;-63
2023/01/26 02:11:31;;;;;;;;;;;;;;;20.59;45.02;101812.50;5055622;28;2809;-63
2023/01/26 02:13:59;;;;;;;;;;;;;;;20.64;44.99;101807.75;5053193;28;3021;-63
2023/01/26 02:16:28;;;;;;;;;;;;;;;20.63;45.16;101801.22;5053153;28;2699;-63
2023/01/26 02:18:54;;;;;;;;;;;;;;;20.63;44.82;101800.47;5054670;28;1762;-62
2023/01/26 02:21:36;;;;;;;;;;;;;;;20.64;45.09;101804.88;5045974;28;2945;-62
2023/01/26 02:24:05;;;;;;;;;;;;;;;20.63;45.12;101800.47;5054548;28;1592;-62
2023/01/26 02:26:33;;;;;;;;;;;;;;;20.63;45.00;101794.72;5055809;28;1703;-62
2023/01/26 02:29:00;;;;;;;;;;;;;;;20.62;44.96;101787.47;5030384;28;2902;-62
2023/01/26 02:31:26;;;;;;;;;;;;;;;20.61;44.98;101785.97;5048320;28;3158;-62
2023/01/26 02:33:54;;;;;;;;;;;;;;;20.59;44.88;101783.72;5058767;28;3032;-62
2023/01/26 02:36:20;;;;;;;;;;;;;;;20.59;44.83;101786.63;5059671;28;2877;-63
2023/01/26 02:39:05;;;;;;;;;;;;;;;20.60;45.03;101772.97;5052404;28;3026;-62
2023/01/26 02:44:18;;;;;;;;;;;;;;;20.58;44.83;101769.97;5058676;28;3341;-62
2023/01/26 02:46:44;;;;;;;;;;;;;;;20.55;45.01;101771.16;5050352;28;3024;-63
2023/01/26 02:51:58;;;;;;;;;;;;;;;20.56;45.11;101766.94;5059350;28;3213;-62
2023/01/26 02:57:10;;;;;;;;;;;;;;;20.54;45.10;101761.06;5059868;28;3048;-62
2023/01/26 02:59:36;;;;;;;;;;;;;;;20.54;45.23;101752.41;5057505;28;2948;-62
2023/01/26 03:02:02;;;;;;;;;;;;;;;20.56;45.04;101764.06;5060737;28;2805;-62
2023/01/26 03:04:29;;;;;;;;;;;;;;;20.59;45.06;101765.69;5056876;28;2821;-62
2023/01/26 03:06:56;;;;;;;;;;;;;;;20.58;45.13;101752.69;5064264;28;1672;-62
2023/01/26 03:09:22;;;;;;;;;;;;;;;20.59;44.88;101768.56;5060462;28;3107;-62
2023/01/26 03:11:49;;;;;;;;;;;;;;;20.59;45.16;101754.19;5060057;28;2981;-63
2023/01/26 03:14:16;;;;;;;;;;;;;;;20.57;45.02;101754.84;5070386;28;3046;-62
2023/01/26 03:16:42;;;;;;;;;;;;;;;20.56;45.10;101761.19;5053845;28;2760;-62
2023/01/26 03:27:26;;;;;;;;;;;;;;;20.58;45.13;101758.44;5057370;28;3057;-63
2023/01/26 03:29:54;;;;;;;;;;;;;;;20.59;45.30;101748.44;5055151;28;3553;-62
2023/01/26 03:32:20;;;;;;;;;;;;;;;20.59;45.21;101749.19;5062604;28;2881;-62
2023/01/26 03:34:49;;;;;;;;;;;;;;;20.59;45.15;101749.19;5070780;28;3059;-62
2023/01/26 03:37:20;;;;;;;;;;;;;;;20.59;45.22;101751.31;5057893;28;3102;-62
2023/01/26 03:56:33;;;;;;;;;;;;;;;20.58;45.08;101746.94;5063814;28;2854;-62
2023/01/26 03:59:14;;;;;;;;;;;;;;;20.60;45.02;101752.81;5057924;28;3059;-62
2023/01/26 04:09:58;;;;;;;;;;;;;;;20.63;45.12;101746.53;5060782;28;3157;-63
2023/01/26 04:12:24;;;;;;;;;;;;;;;20.63;45.09;101740.03;5072299;28;2962;-62
2023/01/26 04:23:25;;;;;;;;;;;;;;;20.62;45.04;101724.16;5072560;28;3015;-62
2023/01/26 04:25:51;;;;;;;;;;;;;;;20.62;45.04;101724.16;5051462;28;3051;-62
2023/01/26 04:28:18;;;;;;;;;;;;;;;20.61;44.99;101722.66;5053363;28;3089;-62
2023/01/26 04:30:45;;;;;;;;;;;;;;;20.61;44.98;101725.53;5051198;28;3005;-62
2023/01/26 04:33:12;;;;;;;;;;;;;;;20.60;45.02;101733.41;5056724;28;3109;-62
2023/01/26 04:35:39;;;;;;;;;;;;;;;20.60;45.04;101726.94;5049031;28;3110;-62
2023/01/26 04:38:05;;;;;;;;;;;;;;;20.60;45.02;101724.78;5055552;28;1858;-62
2023/01/26 04:40:32;;;;;;;;;;;;;;;20.59;44.96;101734.03;5062703;28;3034;-62
2023/01/26 04:42:58;;;;;;;;;;;;;;;20.60;45.01;101729.81;5071933;28;3005;-62
2023/01/26 04:45:24;;;;;;;;;;;;;;;20.60;44.85;101721.16;5057955;28;3607;-62
2023/01/26 04:47:52;;;;;;;;;;;;;;;20.61;44.90;101714.03;5048885;28;3169;-62
2023/01/26 04:50:18;;;;;;;;;;;;;;;20.61;44.90;101717.63;5059552;28;3069;-62
2023/01/26 04:52:46;;;;;;;;;;;;;;;20.61;44.78;101706.13;5062114;28;3350;-62
2023/01/26 04:55:13;;;;;;;;;;;;;;;20.61;45.09;101716.91;5051866;28;3017;-62
2023/01/26 04:57:41;;;;;;;;;;;;;;;20.61;44.89;101714.75;5054512;28;3392;-62
2023/01/26 05:00:10;;;;;;;;;;;;;;;20.60;44.93;101721.91;5048344;28;3016;-63
2023/01/26 05:02:39;;;;;;;;;;;;;;;20.60;45.01;101715.41;5051473;28;3252;-63
2023/01/26 05:05:06;;;;;;;;;;;;;;;20.59;44.96;101705.25;5060337;28;3012;-62
2023/01/26 05:07:33;;;;;;;;;;;;;;;20.59;44.85;101708.16;5050337;28;3068;-63
2023/01/26 05:10:00;;;;;;;;;;;;;;;20.60;44.87;101709.66;5068057;28;3122;-62
2023/01/26 05:12:36;;;;;;;;;;;;;;;20.61;44.87;101706.13;5051807;28;2993;-62
2023/01/26 05:15:19;;;;;;;;;;;;;;;20.62;44.98;101706.91;5046356;28;3625;-62
2023/01/26 05:18:15;;;;;;;;;;;;;;;20.62;44.90;101706.91;5005116;28;3274;-63
2023/01/26 05:20:49;;;;;;;;;;;;;;;20.63;45.09;101696.88;5044710;28;2963;-63
2023/01/26 05:23:17;;;;;;;;;;;;;;;20.63;44.85;101696.88;5056215;28;1634;-63
2023/01/26 05:26:08;;;;;;;;;;;;;;;20.63;44.88;101697.63;5048615;28;2944;-62
2023/01/26 05:29:00;;;;;;;;;;;;;;;20.64;44.88;101704.16;5049322;28;3385;-63
2023/01/26 05:31:27;;;;;;;;;;;;;;;20.64;44.92;101713.53;5044847;28;3519;-62
2023/01/26 05:33:54;;;;;;;;;;;;;;;20.62;45.11;101706.91;5062597;28;3020;-62
2023/01/26 05:36:22;;;;;;;;;;;;;;;20.48;45.29;101696.03;5052008;28;3032;-63
2023/01/26 05:38:49;;;;;;;;;;;;;;;20.51;44.58;101691.13;5054876;28;3044;-63
2023/01/26 05:41:19;;;;;;;;;;;;;;;20.53;44.39;101702.03;5053705;28;3134;-63
2023/01/26 05:44:02;;;;;;;;;;;;;;;20.57;44.39;101702.25;5043443;28;3349;-63
2023/01/26 05:46:44;;;;;;;;;;;;;;;20.57;44.56;101702.25;5057110;28;3487;-62
2023/01/26 05:49:11;;;;;;;;;;;;;;;20.57;44.65;101705.16;5048508;28;3298;-63
2023/01/26 05:51:37;;;;;;;;;;;;;;;20.58;44.44;101707.41;5053452;28;3443;-62
2023/01/26 05:54:05;;;;;;;;;;;;;;;20.58;44.58;101706.66;5043719;28;3310;-63
2023/01/26 05:56:32;;;;;;;;;;;;;;;20.64;44.59;101719.28;5045255;28;3543;-62
2023/01/26 05:59:01;;;;;;;;;;;;;;;20.51;43.15;101720.66;5047942;28;3456;-59
2023/01/26 06:01:29;;;;;;;;;;;;;;;20.47;44.50;101723.28;5058859;28;3401;-62
2023/01/26 06:04:00;;;;;;;;;;;;;;;20.59;44.22;101716.78;5045293;28;3300;-62
2023/01/26 06:06:33;;;;;;;;;;;;;;;20.64;43.99;101721.41;5053244;28;3030;-62
2023/01/26 06:09:15;;;;;;;;;;;;;;;20.65;44.17;101715.00;5059299;28;3266;-63
2023/01/26 06:12:01;;;;;;;;;;;;;;;20.63;44.47;101720.66;5045525;28;3255;-62
2023/01/26 06:14:50;;;;;;;;;;;;;;;18.80;38.72;101727.88;5050699;28;3400;-63
2023/01/26 06:17:16;;;;;;;;;;;;;;;19.31;40.30;101724.69;5045694;28;3378;-63
2023/01/26 06:19:44;;;;;;;;;;;;;;;19.91;42.01;101717.72;5052029;28;3242;-63
2023/01/26 06:22:11;;;;;;;;;;;;;;;20.20;42.95;101717.31;5047886;28;3262;-63
2023/01/26 06:24:40;;;;;;;;;;;;;;;20.32;42.64;101715.19;5060607;28;3321;-63
2023/01/26 06:27:12;;;;;;;;;;;;;;;20.42;43.21;101717.91;5060260;28;1624;-63
2023/01/26 06:29:39;;;;;;;;;;;;;;;20.46;43.08;101723.94;5052706;28;3222;-63
2023/01/26 06:32:06;;;;;;;;;;;;;;;20.48;43.57;101724.78;5056917;28;1975;-63
2023/01/26 06:34:32;;;;;;;;;;;;;;;20.50;43.63;101724.91;5053193;28;2779;-62
2023/01/26 06:36:59;;;;;;;;;;;;;;;20.53;43.91;101725.78;5055848;28;3069;-63
2023/01/26 06:39:31;;;;;;;;;;;;;;;20.54;44.00;101730.16;5049311;28;2746;-63
2023/01/26 06:41:59;;;;;;;;;;;;;;;20.54;44.28;101717.91;5071614;28;2787;-64
2023/01/26 06:44:25;;;;;;;;;;;;;;;20.55;44.42;101728.00;5053291;28;2509;-63
2023/01/26 06:46:52;;;;;;;;;;;;;;;20.55;44.51;101728.78;5061111;28;1857;-62
2023/01/26 06:49:19;;;;;;;;;;;;;;;20.54;44.21;101723.66;5069101;28;2615;-63
2023/01/26 06:51:47;;;;;;;;;;;;;;;20.55;44.38;101733.75;5066703;28;2613;-62
2023/01/26 06:54:14;;;;;;;;;;;;;;;20.53;nan;101733.66;5036004;28;1812;-62
2023/01/26 06:56:59;;;;;;;;;;;;;;;20.50;44.61;101736.41;5051814;28;2114;-62
2023/01/26 06:59:43;;;;;;;;;;;;;;;20.51;44.45;101729.28;5051311;28;1685;-62
2023/01/26 07:02:20;;;;;;;;;;;;;;;20.53;44.50;101722.16;5049120;28;1588;-63
2023/01/26 07:04:47;;;;;;;;;;;;;;;20.52;44.87;101721.38;5052509;28;1820;-62
2023/01/26 07:07:13;;;;;;;;;;;;;;;20.50;44.70;101713.41;5057414;28;1642;-62
2023/01/26 07:09:40;;;;;;;;;;;;;;;20.51;45.07;101714.88;5055386;28;1852;-62
2023/01/26 07:12:06;;;;;;;;;;;;;;;20.51;45.03;101714.88;5056977;28;2240;-63
2023/01/26 07:14:33;;;;;;;;;;;;;;;20.54;45.07;101712.13;5055031;28;1859;-62
2023/01/26 07:17:00;;;;;;;;;;;;;;;20.54;44.76;101715.00;5056999;28;1714;-62
2023/01/26 07:19:29;;;;;;;;;;;;;;;20.54;45.09;101717.91;5056106;28;1976;-62
2023/01/26 07:21:55;;;;;;;;;;;;;;;20.53;45.26;101722.16;5055612;28;1698;-62
2023/01/26 07:24:21;;;;;;;;;;;;;;;20.52;45.33;101721.38;5050968;28;1777;-62
2023/01/26 07:26:48;;;;;;;;;;;;;;;20.51;45.25;101712.00;5054629;28;1613;-62
2023/01/26 07:29:15;;;;;;;;;;;;;;;20.50;45.31;101713.41;5055559;28;1554;-62
2023/01/26 07:31:43;;;;;;;;;;;;;;;20.50;45.29;101719.16;5052644;28;1785;-62
2023/01/26 07:34:09;;;;;;;;;;;;;;;20.50;45.18;101724.91;5052448;28;1914;-62
2023/01/26 07:36:36;;;;;;;;;;;;;;;20.49;45.17;101726.28;5051028;28;1806;-62
2023/01/26 07:39:02;;;;;;;;;;;;;;;20.50;45.24;101733.53;5055766;28;1733;-62
2023/01/26 07:41:30;;;;;;;;;;;;;;;20.51;45.07;101726.41;5058490;28;1842;-63
2023/01/26 07:43:57;;;;;;;;;;;;;;;20.53;45.19;101727.91;5074050;28;1844;-62
2023/01/26 07:46:23;;;;;;;;;;;;;;;20.54;45.10;101732.28;5061595;28;1785;-63
2023/01/26 07:48:49;;;;;;;;;;;;;;;20.55;45.16;101733.75;5060946;28;1943;-63
2023/01/26 07:51:16;;;;;;;;;;;;;;;20.55;45.48;101737.41;5057687;28;1677;-62
2023/01/26 07:53:42;;;;;;;;;;;;;;;20.56;45.23;101729.53;5051962;28;1957;-62
2023/01/26 07:56:12;;;;;;;;;;;;;;;20.56;45.40;101741.03;5057501;28;1839;-62
2023/01/26 07:58:39;;;;;;;;;;;;;;;20.57;45.31;101739.66;5052427;28;1669;-62
2023/01/26 08:01:06;;;;;;;;;;;;;;;20.56;45.20;101736.06;5063273;28;1646;-62
2023/01/26 08:03:32;;;;;;;;;;;;;;;20.57;45.57;101740.44;5054965;28;1633;-62
2023/01/26 08:05:59;;;;;;;;;;;;;;;20.55;45.52;101733.75;5060261;28;1583;-63
2023/01/26 08:08:26;;;;;;;;;;;;;;;20.56;45.46;101749.66;5057254;28;1918;-63
2023/01/26 08:10:54;;;;;;;;;;;;;;;20.53;45.37;101750.94;5056261;28;1712;-62
2023/01/26 08:13:21;;;;;;;;;;;;;;;20.53;45.50;101742.31;5057950;28;1941;-63
2023/01/26 08:16:01;;;;;;;;;;;;;;;20.51;45.30;101742.91;5052996;28;1784;-62
2023/01/26 08:18:28;;;;;;;;;;;;;;;20.53;45.22;101745.19;5055292;28;1911;-63
2023/01/26 08:20:54;;;;;;;;;;;;;;;20.54;45.24;101746.66;5052845;28;1712;-63
2023/01/26 08:23:21;;;;;;;;;;;;;;;20.51;45.33;101749.41;5054939;28;1725;-62
2023/01/26 08:25:47;;;;;;;;;;;;;;;20.53;45.26;101748.81;5058299;28;1878;-63
2023/01/26 08:28:14;;;;;;;;;;;;;;;20.53;45.26;101753.81;5058164;28;1584;-63
2023/01/26 08:30:40;;;;;;;;;;;;;;;20.53;45.41;101750.94;5059581;28;1693;-63
2023/01/26 08:33:07;;;;;;;;;;;;;;;20.54;45.33;101758.19;5057842;28;1906;-62
2023/01/26 08:35:33;;;;;;;;;;;;;;;20.54;45.32;101758.19;5055855;28;1648;-62
2023/01/26 08:38:00;;;;;;;;;;;;;;;20.52;45.64;101750.16;5059387;28;1591;-62
2023/01/26 08:40:26;;;;;;;;;;;;;;;20.53;45.78;101745.19;5054289;28;1800;-62
2023/01/26 08:42:53;;;;;;;;;;;;;;;20.52;45.63;101744.41;5053692;28;1570;-63
2023/01/26 08:45:19;;;;;;;;;;;;;;;20.51;45.59;101743.66;5052870;28;1918;-62
2023/01/26 08:47:50;;;;;;;;;;;;;;;20.50;45.63;101745.06;5054792;28;1688;-62
2023/01/26 08:50:16;;;;;;;;;;;;;;;20.47;45.43;101737.66;5057798;28;1538;-62
2023/01/26 08:52:43;;;;;;;;;;;;;;;20.45;45.63;101746.16;5054330;28;2017;-63
2023/01/26 08:55:09;;;;;;;;;;;;;;;20.45;45.65;101740.41;5052315;28;2362;-63
2023/01/26 08:57:35;;;;;;;;;;;;;;;20.45;45.60;101734.66;5056792;28;1903;-62
2023/01/26 09:00:02;;;;;;;;;;;;;;;20.46;45.59;101739.06;5048450;28;1538;-62
2023/01/26 09:02:28;;;;;;;;;;;;;;;20.47;45.75;101740.53;5054279;28;1725;-63
2023/01/26 09:04:55;;;;;;;;;;;;;;;20.47;45.72;101743.41;5048689;28;1677;-63
2023/01/26 09:07:21;;;;;;;;;;;;;;;20.47;45.46;101740.53;5052305;28;1721;-62
2023/01/26 09:09:47;;;;;;;;;;;;;;;20.54;45.54;101741.66;5048571;28;1797;-63
2023/01/26 09:12:14;;;;;;;;;;;;;;;20.55;45.42;101748.16;5053155;28;1765;-62
2023/01/26 09:14:40;;;;;;;;;;;;;;;20.57;45.46;101748.31;5056238;28;1975;-63
2023/01/26 09:17:07;;;;;;;;;;;;;;;20.55;45.40;101748.16;5054538;28;1565;-63
2023/01/26 09:19:33;;;;;;;;;;;;;;;20.56;45.33;101755.41;5053885;28;1714;-63
2023/01/26 09:21:59;;;;;;;;;;;;;;;20.56;45.50;101749.66;5054247;28;1792;-62
2023/01/26 09:24:26;;;;;;;;;;;;;;;20.54;45.48;101752.41;5052914;28;1787;-62
2023/01/26 09:26:52;;;;;;;;;;;;;;;20.55;45.49;101756.78;5058014;28;1621;-63
2023/01/26 09:29:19;;;;;;;;;;;;;;;20.53;45.37;101745.94;5056712;28;1646;-63
2023/01/26 09:31:45;;;;;;;;;;;;;;;20.51;45.49;101755.16;5056379;28;1737;-62
2023/01/26 09:34:12;;;;;;;;;;;;;;;20.51;45.35;101740.78;5058902;28;1963;-62
2023/01/26 09:36:38;;;;;;;;;;;;;;;20.52;45.55;101750.16;5054969;28;1816;-63
2023/01/26 09:39:07;;;;;;;;;;;;;;;20.53;45.34;101750.94;5051338;28;1804;-62
2023/01/26 09:41:48;;;;;;;;;;;;;;;20.54;45.48;101758.91;5054117;28;1733;-62
2023/01/26 09:44:19;;;;;;;;;;;;;;;20.54;45.32;101758.19;5055704;28;1728;-63
2023/01/26 09:46:52;;;;;;;;;;;;;;;20.53;45.57;101745.94;5054488;28;1708;-62
2023/01/26 09:49:20;;;;;;;;;;;;;;;20.52;45.42;101744.41;5052490;28;1834;-62
2023/01/26 09:51:47;;;;;;;;;;;;;;;20.55;45.46;101748.16;5057156;28;1650;-62
2023/01/26 09:54:29;;;;;;;;;;;;;;;20.56;45.34;101755.41;5052064;28;1938;-63
2023/01/26 09:56:56;;;;;;;;;;;;;;;20.55;45.42;101753.91;5053909;28;2390;-62
2023/01/26 09:59:30;;;;;;;;;;;;;;;20.53;45.51;101763.19;5056465;28;1656;-62
2023/01/26 10:02:04;;;;;;;;;;;;;;;20.51;45.42;101749.41;5053820;28;1683;-63
2023/01/26 10:04:38;;;;;;;;;;;;;;;20.51;45.44;101754.44;5055817;28;1866;-63
2023/01/26 10:07:07;;;;;;;;;;;;;;;20.51;45.29;101740.78;5049483;28;1621;-63
2023/01/26 10:09:46;;;;;;;;;;;;;;;20.51;45.48;101752.28;5052721;28;1827;-62
2023/01/26 10:12:26;;;;;;;;;;;;;;;20.53;45.48;101756.69;5055981;28;1860;-62
2023/01/26 10:15:15;;;;;;;;;;;;;;;20.52;45.33;101750.16;5054404;28;1980;-62
2023/01/26 10:17:41;;;;;;;;;;;;;;;20.55;45.42;101745.28;5047212;28;1574;-63
2023/01/26 10:20:17;;;;;;;;;;;;;;;20.56;45.68;101738.16;5055643;28;1812;-63
2023/01/26 10:22:47;;;;;;;;;;;;;;;20.56;45.48;101741.81;5052489;28;3086;-63
2023/01/26 10:25:18;;;;;;;;;;;;;;;20.55;45.54;101719.38;5053100;28;1846;-62
2023/01/26 10:27:45;;;;;;;;;;;;;;;20.57;45.41;101728.94;5055715;28;2304;-63
2023/01/26 10:30:12;;;;;;;;;;;;;;;20.56;45.44;101723.78;5053930;28;1603;-63
2023/01/26 10:32:39;;;;;;;;;;;;;;;20.55;45.54;101714.41;5055361;28;1621;-62
2023/01/26 10:35:07;;;;;;;;;;;;;;;20.56;45.50;101710.16;5055389;28;1969;-62
2023/01/26 10:37:34;;;;;;;;;;;;;;;20.54;45.39;101698.50;5054736;28;1675;-63
2023/01/26 10:40:01;;;;;;;;;;;;;;;20.56;45.39;101697.88;5056106;28;2162;-62
2023/01/26 10:42:28;;;;;;;;;;;;;;;20.55;45.34;101696.34;5055007;28;1573;-62
2023/01/26 10:44:54;;;;;;;;;;;;;;;20.54;45.45;101683.38;5051989;28;1710;-63
2023/01/26 10:47:24;;;;;;;;;;;;;;;20.51;45.39;101683.25;5053793;28;1721;-62
2023/01/26 10:49:51;;;;;;;;;;;;;;;20.48;45.43;101681.63;5052065;28;1867;-62
2023/01/26 10:52:18;;;;;;;;;;;;;;;20.48;45.48;101687.38;5054901;28;1642;-63
2023/01/26 10:54:45;;;;;;;;;;;;;;;20.47;45.49;101674.38;5054426;28;1946;-63
2023/01/26 10:57:15;;;;;;;;;;;;;;;20.49;45.30;101676.63;5055254;28;1545;-63
2023/01/26 10:59:48;;;;;;;;;;;;;;;20.49;45.33;101677.38;5052930;28;1733;-63
2023/01/26 11:02:14;;;;;;;;;;;;;;;20.49;45.38;101686.00;5053883;28;1654;-63
2023/01/26 11:04:40;;;;;;;;;;;;;;;20.48;45.47;101675.88;5056667;28;1800;-63
2023/01/26 11:07:24;;;;;;;;;;;;;;;20.53;45.26;101676.13;5054712;28;1728;-62
2023/01/26 11:09:51;;;;;;;;;;;;;;;20.54;45.29;101678.34;5051974;28;1730;-63
2023/01/26 11:12:19;;;;;;;;;;;;;;;20.53;45.21;101676.13;5054798;28;1901;-63
2023/01/26 11:15:03;;;;;;;;;;;;;;;20.53;45.15;101667.50;5054799;28;1977;-63
2023/01/26 11:17:33;;;;;;;;;;;;;;;20.53;45.45;101670.38;5058033;28;2030;-63
2023/01/26 11:20:22;;;;;;;;;;;;;;;20.54;45.19;101666.09;5054891;28;1608;-63
2023/01/26 11:22:51;;;;;;;;;;;;;;;20.54;45.21;101671.84;5050399;28;1871;-63
2023/01/26 11:25:25;;;;;;;;;;;;;;;20.55;45.19;101670.47;5058519;28;1582;-63
2023/01/26 11:28:10;;;;;;;;;;;;;;;20.56;45.16;101666.22;5056880;28;1672;-62
2023/01/26 11:30:40;;;;;;;;;;;;;;;20.57;45.34;101664.84;5055564;28;1684;-63
2023/01/26 11:33:24;;;;;;;;;;;;;;;20.57;45.36;101659.88;5059037;28;1981;-63
2023/01/26 11:35:52;;;;;;;;;;;;;;;20.57;45.22;101664.84;5055800;28;1621;-63
2023/01/26 11:38:31;;;;;;;;;;;;;;;20.59;45.35;101668.63;5054922;28;1725;-63
2023/01/26 11:41:16;;;;;;;;;;;;;;;20.59;45.33;101656.34;5057672;28;1793;-62
2023/01/26 11:43:48;;;;;;;;;;;;;;;20.59;45.32;101656.34;5058502;28;1844;-62
2023/01/26 11:46:30;;;;;;;;;;;;;;;20.58;45.26;101651.97;5056352;28;1640;-62
2023/01/26 11:49:15;;;;;;;;;;;;;;;20.58;45.46;101654.84;5054843;28;1744;-62
2023/01/26 11:51:54;;;;;;;;;;;;;;;20.57;45.39;101648.38;5057678;28;1730;-62
2023/01/26 11:54:35;;;;;;;;;;;;;;;20.55;45.29;101639.59;5056917;28;1922;-62
2023/01/26 11:57:03;;;;;;;;;;;;;;;20.57;45.22;101641.84;5052160;28;1538;-62
2023/01/26 11:59:34;;;;;;;;;;;;;;;20.56;45.35;101638.22;5055993;28;1666;-62
2023/01/26 12:02:05;;;;;;;;;;;;;;;20.56;45.39;101628.81;5053903;28;1660;-62
2023/01/26 12:04:32;;;;;;;;;;;;;;;20.56;45.36;101620.19;5054612;28;1674;-62
2023/01/26 12:07:02;;;;;;;;;;;;;;;20.56;45.09;101628.81;5070307;28;1787;-62
2023/01/26 12:09:31;;;;;;;;;;;;;;;20.57;45.35;101630.31;5053658;28;1816;-62
2023/01/26 12:12:18;;;;;;;;;;;;;;;20.57;45.38;101615.94;5051721;28;1737;-62
2023/01/26 12:14:44;;;;;;;;;;;;;;;20.57;45.11;101610.97;5053539;28;1946;-62
2023/01/26 12:17:25;;;;;;;;;;;;;;;20.56;45.17;101605.78;5056333;28;1909;-62
2023/01/26 12:20:03;;;;;;;;;;;;;;;20.56;45.35;101605.78;5056947;28;1819;-62
2023/01/26 12:22:36;;;;;;;;;;;;;;;20.55;45.30;101610.81;5052962;28;1606;-62
2023/01/26 12:25:23;;;;;;;;;;;;;;;20.53;45.39;101602.06;5052817;28;1632;-62
2023/01/26 12:28:09;;;;;;;;;;;;;;;20.54;45.14;101597.03;5043403;28;1627;-62
2023/01/26 12:30:47;;;;;;;;;;;;;;;20.53;45.19;101595.56;5057998;28;1740;-62
2023/01/26 12:33:13;;;;;;;;;;;;;;;20.54;45.04;101597.78;5046707;28;1762;-62
2023/01/26 12:35:52;;;;;;;;;;;;;;;20.55;45.13;101605.06;5061190;28;1962;-62
2023/01/26 12:38:20;;;;;;;;;;;;;;;20.54;45.09;101597.03;5058910;28;1564;-63
2023/01/26 12:41:04;;;;;;;;;;;;;;;20.56;45.17;101594.28;5036605;28;1849;-62
2023/01/26 12:43:54;;;;;;;;;;;;;;;20.56;45.40;101588.53;5056471;28;1822;-62
2023/01/26 12:46:20;;;;;;;;;;;;;;;20.56;45.14;101582.78;5053969;28;1856;-62
2023/01/26 12:48:48;;;;;;;;;;;;;;;20.58;45.35;101582.91;5056738;28;1811;-62
2023/01/26 12:51:34;;;;;;;;;;;;;;;20.58;45.28;101580.03;5053801;28;1681;-62
2023/01/26 12:54:14;;;;;;;;;;;;;;;20.59;45.23;101575.78;5054640;28;1985;-62
2023/01/26 12:56:46;;;;;;;;;;;;;;;20.58;45.36;101580.78;5057130;28;1990;-62
2023/01/26 12:59:16;;;;;;;;;;;;;;;20.57;45.26;101581.41;5062453;28;1620;-62
2023/01/26 13:02:14;;;;;;;;;;;;;;;20.56;45.13;101589.31;5054074;28;1737;-61
2023/01/26 13:04:41;;;;;;;;;;;;;;;20.55;45.25;101587.03;5057448;28;1617;-62
2023/01/26 13:07:27;;;;;;;;;;;;;;;20.53;45.19;101584.78;5055043;28;1762;-61
2023/01/26 13:10:06;;;;;;;;;;;;;;;20.53;45.14;101586.94;5057128;28;1601;-61
2023/01/26 13:12:49;;;;;;;;;;;;;;;20.53;45.21;101584.78;5056722;28;1605;-62
2023/01/26 13:15:16;;;;;;;;;;;;;;;20.55;45.06;101590.66;5056877;28;1924;-62
2023/01/26 13:17:45;;;;;;;;;;;;;;;20.55;45.02;101587.78;5056629;28;2138;-61
2023/01/26 13:20:22;;;;;;;;;;;;;;;20.55;45.02;101592.78;5051157;28;1800;-62
2023/01/26 13:22:48;;;;;;;;;;;;;;;20.56;45.07;101591.41;5057494;28;1581;-61
2023/01/26 13:25:16;;;;;;;;;;;;;;;20.55;45.09;101587.03;5055055;28;1915;-61
2023/01/26 13:27:44;;;;;;;;;;;;;;;20.56;45.11;101597.16;5055249;28;1624;-61
2023/01/26 13:30:26;;;;;;;;;;;;;;;20.56;45.08;101597.16;5054726;28;1789;-62
2023/01/26 13:32:53;;;;;;;;;;;;;;;20.55;45.26;101593.53;5052476;28;1586;-62
2023/01/26 13:35:20;;;;;;;;;;;;;;;20.53;45.10;101596.31;5054757;28;1910;-61
2023/01/26 13:37:52;;;;;;;;;;;;;;;20.51;45.39;101605.56;5056811;28;1566;-62
2023/01/26 13:40:20;;;;;;;;;;;;;;;20.52;45.28;101609.19;5054368;28;1588;-61
2023/01/26 13:43:06;;;;;;;;;;;;;;;20.51;45.21;101613.44;5054257;28;1633;-62
2023/01/26 13:45:45;;;;;;;;;;;;;;;20.50;45.21;101621.34;5058180;28;1625;-61
2023/01/26 13:48:13;;;;;;;;;;;;;;;20.51;45.04;101613.44;5054136;28;1769;-62
2023/01/26 13:50:39;;;;;;;;;;;;;;;20.51;44.88;101617.06;5051207;28;1624;-62
2023/01/26 13:53:23;;;;;;;;;;;;;;;20.45;45.31;101618.84;5050485;28;3840;-65